createdAt,value
2023-07-03T00:00:07.332Z,15.2
2023-07-03T00:01:07.468Z,15.52
2023-07-03T00:02:07.627Z,15.2
2023-07-03T00:03:07.785Z,15.2
2023-07-03T00:04:08.005Z,15.2
2023-07-03T00:05:08.084Z,15.2
2023-07-03T00:06:08.233Z,15.12
2023-07-03T00:07:08.379Z,15.2
2023-07-03T00:08:08.538Z,15.2
2023-07-03T00:09:08.681Z,15.2
2023-07-03T00:10:08.836Z,15.12
2023-07-03T00:11:09.003Z,15.04
2023-07-03T00:12:09.142Z,14.88
2023-07-03T00:13:09.293Z,15.28
2023-07-03T00:14:09.475Z,15.44
2023-07-03T00:15:09.603Z,15.28
2023-07-03T00:16:09.774Z,15.28
2023-07-03T00:17:09.908Z,15.28
2023-07-03T00:18:10.056Z,15.12
2023-07-03T00:19:10.207Z,14.88
2023-07-03T00:20:10.359Z,15.04
2023-07-03T00:21:10.504Z,15.2
2023-07-03T00:22:10.676Z,15.2
2023-07-03T00:23:10.812Z,15.2
2023-07-03T00:24:10.963Z,15.12
2023-07-03T00:25:11.151Z,15.04
2023-07-03T00:26:11.268Z,14.88
2023-07-03T00:27:11.424Z,14.639999
2023-07-03T00:28:11.572Z,14.48
2023-07-03T00:29:11.727Z,14.32
2023-07-03T00:30:11.877Z,14.799999
2023-07-03T00:31:12.037Z,14.799999
2023-07-03T00:32:12.196Z,14.88
2023-07-03T00:33:12.336Z,15.12
2023-07-03T00:34:12.480Z,15.12
2023-07-03T00:35:12.634Z,15.2
2023-07-03T00:36:12.780Z,15.28
2023-07-03T00:37:12.946Z,15.28
2023-07-03T00:38:13.119Z,15.28
2023-07-03T00:39:13.236Z,15.28
2023-07-03T00:40:13.401Z,15.2
2023-07-03T00:41:13.547Z,15.28
2023-07-03T00:42:13.693Z,15.28
2023-07-03T00:43:13.873Z,15.44
2023-07-03T00:44:14.015Z,15.44
2023-07-03T00:45:14.152Z,15.28
2023-07-03T00:46:14.312Z,15.2
2023-07-03T00:47:14.462Z,15.44
2023-07-03T00:48:14.617Z,15.44
2023-07-03T00:49:14.821Z,15.28
2023-07-03T00:50:14.944Z,15.28
2023-07-03T00:51:15.065Z,15.28
2023-07-03T00:52:15.208Z,15.12
2023-07-03T00:53:16.149Z,14.719999
2023-07-03T00:54:15.467Z,14.639999
2023-07-03T00:55:15.622Z,14.799999
2023-07-03T00:56:15.777Z,14.719999
2023-07-03T00:57:15.924Z,14.88
2023-07-03T00:58:16.073Z,15.04
2023-07-03T00:59:16.315Z,15.12
2023-07-03T01:01:16.588Z,15.04
2023-07-03T01:02:16.686Z,15.04
2023-07-03T01:03:16.840Z,15.12
2023-07-03T01:04:17.063Z,15.12
2023-07-03T01:05:17.206Z,15.12
2023-07-03T01:06:17.869Z,15.04
2023-07-03T01:07:17.961Z,14.88
2023-07-03T01:08:17.952Z,15.04
2023-07-03T01:09:17.952Z,14.639999
2023-07-03T01:10:18.106Z,14.719999
2023-07-03T01:11:18.269Z,14.719999
2023-07-03T01:12:18.430Z,14.719999
2023-07-03T01:13:18.669Z,14.719999
2023-07-03T01:14:18.781Z,14.4
2023-07-03T01:15:19.196Z,14.4
2023-07-03T01:17:19.557Z,14.799999
2023-07-03T01:19:19.848Z,14.799999
2023-07-03T01:21:20.083Z,14.48
2023-07-03T01:22:19.687Z,14.32
2023-07-03T01:23:19.830Z,14.4
2023-07-03T01:24:19.982Z,14.639999
2023-07-03T01:25:20.129Z,14.639999
2023-07-03T01:26:20.282Z,14.719999
2023-07-03T01:27:20.488Z,14.639999
2023-07-03T01:28:20.582Z,14.719999
2023-07-03T01:29:20.769Z,14.799999
2023-07-03T01:30:20.892Z,14.639999
2023-07-03T01:31:21.069Z,14.639999
2023-07-03T01:32:21.282Z,14.639999
2023-07-03T01:33:21.352Z,14.639999
2023-07-03T01:34:21.498Z,14.48
2023-07-03T01:35:21.660Z,14.48
2023-07-03T01:36:21.800Z,14.48
2023-07-03T01:37:21.958Z,14.4
2023-07-03T01:38:22.103Z,14.639999
2023-07-03T01:39:22.256Z,14.48
2023-07-03T01:40:22.410Z,14.48
2023-07-03T01:41:22.559Z,14.4
2023-07-03T01:42:22.709Z,14.4
2023-07-03T01:43:22.862Z,14.32
2023-07-03T01:44:23.026Z,14.32
2023-07-03T01:45:23.176Z,14.24
2023-07-03T01:46:23.467Z,14.32
2023-07-03T01:47:23.513Z,14.24
2023-07-03T01:48:23.624Z,14.4
2023-07-03T01:49:23.729Z,14.32
2023-07-03T01:50:23.875Z,14.4
2023-07-03T01:51:24.026Z,14.639999
2023-07-03T01:52:24.220Z,14.4
2023-07-03T01:53:24.343Z,14.4
2023-07-03T01:54:24.521Z,14.32
2023-07-03T01:55:24.636Z,14.4
2023-07-03T01:56:24.783Z,14.4
2023-07-03T01:57:24.942Z,14.32
2023-07-03T01:58:25.123Z,14.48
2023-07-03T01:59:25.266Z,14.4
2023-07-03T02:00:25.412Z,14.48
2023-07-03T02:01:25.593Z,14.48
2023-07-03T02:02:25.729Z,14.639999
2023-07-03T02:03:25.977Z,14.799999
2023-07-03T02:04:26.023Z,14.719999
2023-07-03T02:05:26.121Z,14.719999
2023-07-03T02:06:26.257Z,14.799999
2023-07-03T02:07:26.426Z,14.719999
2023-07-03T02:08:26.564Z,14.719999
2023-07-03T02:09:26.682Z,14.799999
2023-07-03T02:10:26.818Z,14.799999
2023-07-03T02:11:26.970Z,14.88
2023-07-03T02:12:27.119Z,14.88
2023-07-03T02:13:27.293Z,14.719999
2023-07-03T02:14:27.420Z,14.88
2023-07-03T02:15:27.570Z,15.04
2023-07-03T02:16:27.772Z,15.04
2023-07-03T02:17:27.893Z,15.04
2023-07-03T02:18:28.041Z,15.04
2023-07-03T02:19:28.204Z,15.04
2023-07-03T02:20:28.340Z,15.04
2023-07-03T02:21:28.447Z,14.88
2023-07-03T02:22:28.583Z,14.799999
2023-07-03T02:23:28.736Z,14.799999
2023-07-03T02:24:29.046Z,14.799999
2023-07-03T02:25:29.060Z,14.719999
2023-07-03T02:26:29.202Z,14.799999
2023-07-03T02:27:29.346Z,14.719999
2023-07-03T02:28:29.494Z,14.639999
2023-07-03T02:29:29.667Z,14.32
2023-07-03T02:30:29.797Z,14.24
2023-07-03T02:31:29.998Z,14.4
2023-07-03T02:32:30.143Z,14.08
2023-07-03T02:33:30.269Z,14.24
2023-07-03T02:34:30.414Z,14
2023-07-03T02:35:30.572Z,13.84
2023-07-03T02:36:30.768Z,14
2023-07-03T02:37:30.863Z,14.24
2023-07-03T02:38:31.015Z,14
2023-07-03T02:39:31.167Z,14
2023-07-03T02:40:31.328Z,13.84
2023-07-03T02:41:31.475Z,14.08
2023-07-03T02:42:31.622Z,13.679999
2023-07-03T02:43:31.788Z,13.599999
2023-07-03T02:44:31.925Z,13.28
2023-07-03T02:45:32.074Z,13.12
2023-07-03T02:46:32.290Z,13.2
2023-07-03T02:47:32.448Z,13.679999
2023-07-03T02:48:32.555Z,13.52
2023-07-03T02:49:32.714Z,13.52
2023-07-03T02:50:32.841Z,13.28
2023-07-03T02:51:32.976Z,13.12
2023-07-03T02:52:33.122Z,13.679999
2023-07-03T02:53:33.256Z,13.679999
2023-07-03T02:54:33.578Z,14
2023-07-03T02:56:33.918Z,14
2023-07-03T02:58:33.957Z,14
2023-07-03T03:00:34.433Z,14.08
2023-07-03T03:01:34.439Z,14.08
2023-07-03T03:02:35.081Z,14.24
2023-07-03T03:03:34.690Z,13.84
2023-07-03T03:04:34.857Z,14
2023-07-03T03:05:34.969Z,13.84
2023-07-03T03:06:35.129Z,13.599999
2023-07-03T03:07:35.272Z,13.92
2023-07-03T03:08:35.430Z,13.599999
2023-07-03T03:09:35.584Z,13.92
2023-07-03T03:10:35.722Z,14.24
2023-07-03T03:11:35.926Z,14.08
2023-07-03T03:12:36.031Z,13.84
2023-07-03T03:13:36.186Z,13.84
2023-07-03T03:14:36.335Z,14
2023-07-03T03:15:36.499Z,13.599999
2023-07-03T03:16:36.656Z,13.679999
2023-07-03T03:17:36.825Z,13.679999
2023-07-03T03:18:36.939Z,13.84
2023-07-03T03:19:37.096Z,13.679999
2023-07-03T03:20:37.246Z,13.28
2023-07-03T03:21:37.357Z,13.44
2023-07-03T03:22:37.501Z,13.599999
2023-07-03T03:23:37.672Z,13.92
2023-07-03T03:24:37.807Z,14
2023-07-03T03:25:37.961Z,14
2023-07-03T03:26:38.133Z,13.84
2023-07-03T03:27:38.260Z,13.28
2023-07-03T03:28:38.412Z,13.84
2023-07-03T03:29:38.573Z,13.84
2023-07-03T03:30:38.768Z,13.599999
2023-07-03T03:31:38.869Z,13.92
2023-07-03T03:32:39.031Z,14
2023-07-03T03:33:39.204Z,14
2023-07-03T03:34:39.324Z,13.679999
2023-07-03T03:35:39.477Z,13.92
2023-07-03T03:36:39.641Z,13.599999
2023-07-03T03:37:39.784Z,13.52
2023-07-03T03:38:39.943Z,14
2023-07-03T03:39:40.089Z,14.4
2023-07-03T03:40:40.238Z,14.32
2023-07-03T03:41:40.388Z,14.08
2023-07-03T03:42:40.542Z,14.4
2023-07-03T03:43:40.693Z,14.48
2023-07-03T03:44:40.839Z,14.48
2023-07-03T03:45:40.962Z,14.639999
2023-07-03T03:46:41.123Z,14.639999
2023-07-03T03:47:41.325Z,14.639999
2023-07-03T03:48:41.468Z,14.799999
2023-07-03T03:49:41.550Z,14.88
2023-07-03T03:50:41.719Z,15.04
2023-07-03T03:51:41.884Z,14.719999
2023-07-03T03:52:42.009Z,14.88
2023-07-03T03:53:42.119Z,15.04
2023-07-03T03:54:42.260Z,14.88
2023-07-03T03:55:42.414Z,14.88
2023-07-03T03:56:42.568Z,14.799999
2023-07-03T03:57:42.720Z,14.799999
2023-07-03T03:58:42.869Z,14.88
2023-07-03T03:59:43.604Z,15.04
2023-07-03T04:01:48.439Z,15.2
2023-07-03T04:02:43.434Z,15.52
2023-07-03T04:03:45.583Z,15.44
2023-07-03T04:04:43.696Z,15.44
2023-07-03T04:05:43.840Z,15.599999
2023-07-03T04:06:43.940Z,15.599999
2023-07-03T04:07:44.080Z,15.52
2023-07-03T04:08:44.241Z,15.52
2023-07-03T04:09:44.389Z,15.599999
2023-07-03T04:10:44.553Z,15.599999
2023-07-03T04:11:44.709Z,15.599999
2023-07-03T04:12:44.958Z,15.599999
2023-07-03T04:13:45.075Z,15.839999
2023-07-03T04:14:45.256Z,15.839999
2023-07-03T04:15:45.542Z,15.92
2023-07-03T04:16:45.657Z,15.92
2023-07-03T04:17:45.901Z,15.92
2023-07-03T04:18:46.029Z,16.08
2023-07-03T04:19:46.159Z,15.92
2023-07-03T04:20:46.306Z,15.92
2023-07-03T04:21:46.458Z,15.839999
2023-07-03T04:22:46.610Z,15.92
2023-07-03T04:23:46.763Z,15.839999
2023-07-03T04:24:46.929Z,15.839999
2023-07-03T04:25:47.077Z,15.92
2023-07-03T04:26:47.222Z,16
2023-07-03T04:27:47.372Z,16
2023-07-03T04:28:47.523Z,16.08
2023-07-03T04:29:47.672Z,16.24
2023-07-03T04:30:47.823Z,16.08
2023-07-03T04:31:48.018Z,16
2023-07-03T04:32:48.152Z,16
2023-07-03T04:33:48.281Z,16
2023-07-03T04:34:48.439Z,16
2023-07-03T04:35:48.714Z,15.92
2023-07-03T04:36:48.737Z,16
2023-07-03T04:37:48.892Z,16
2023-07-03T04:38:49.048Z,16
2023-07-03T04:39:49.195Z,16.08
2023-07-03T04:40:49.347Z,16.24
2023-07-03T04:41:49.520Z,16.24
2023-07-03T04:42:49.650Z,16.24
2023-07-03T04:43:49.807Z,16.4
2023-07-03T04:44:50.001Z,16.4
2023-07-03T04:45:50.322Z,16.32
2023-07-03T04:46:50.262Z,16.32
2023-07-03T04:47:50.440Z,16.32
2023-07-03T04:48:50.571Z,16.32
2023-07-03T04:49:50.760Z,16.24
2023-07-03T04:50:51.113Z,16.24
2023-07-03T04:51:51.021Z,16.32
2023-07-03T04:52:51.166Z,16.4
2023-07-03T04:53:51.323Z,16.64
2023-07-03T04:54:51.470Z,16.64
2023-07-03T04:55:51.909Z,16.72
2023-07-03T04:56:51.779Z,16.72
2023-07-03T04:57:51.936Z,16.64
2023-07-03T04:58:52.080Z,16.4
2023-07-03T04:59:52.232Z,16.48
2023-07-03T05:00:52.383Z,16.4
2023-07-03T05:01:52.600Z,16.48
2023-07-03T05:02:52.741Z,16.64
2023-07-03T05:03:52.858Z,16.64
2023-07-03T05:04:53.051Z,16.72
2023-07-03T05:05:53.270Z,16.8
2023-07-03T05:06:53.294Z,17.04
2023-07-03T05:07:53.634Z,16.88
2023-07-03T05:08:53.582Z,16.88
2023-07-03T05:09:53.777Z,16.64
2023-07-03T05:10:53.856Z,16.64
2023-07-03T05:11:54.007Z,16.72
2023-07-03T05:12:54.188Z,16.88
2023-07-03T05:13:54.319Z,16.8
2023-07-03T05:14:54.471Z,16.88
2023-07-03T05:15:54.737Z,17.04
2023-07-03T05:16:54.773Z,17.12
2023-07-03T05:17:54.982Z,17.04
2023-07-03T05:18:55.071Z,17.04
2023-07-03T05:19:55.224Z,17.04
2023-07-03T05:20:55.397Z,17.28
2023-07-03T05:21:55.479Z,18
2023-07-03T05:22:55.634Z,17.6
2023-07-03T05:23:55.791Z,17.28
2023-07-03T05:24:55.945Z,17.44
2023-07-03T05:25:56.096Z,17.92
2023-07-03T05:26:56.234Z,17.76
2023-07-03T05:27:56.345Z,18.24
2023-07-03T05:28:56.495Z,18.32
2023-07-03T05:29:56.659Z,18.64
2023-07-03T05:30:56.854Z,18.4
2023-07-03T05:31:56.957Z,18.4
2023-07-03T05:32:57.167Z,18.24
2023-07-03T05:33:57.255Z,18.48
2023-07-03T05:34:57.408Z,18.24
2023-07-03T05:35:57.675Z,18
2023-07-03T05:36:57.713Z,18
2023-07-03T05:37:57.870Z,17.68
2023-07-03T05:38:58.096Z,17.92
2023-07-03T05:39:58.199Z,18
2023-07-03T05:40:58.318Z,18.32
2023-07-03T05:41:58.469Z,18.08
2023-07-03T05:42:58.619Z,18.48
2023-07-03T05:43:58.821Z,18
2023-07-03T05:44:58.938Z,18.64
2023-07-03T05:45:59.075Z,18.8
2023-07-03T05:46:59.251Z,19.2
2023-07-03T05:47:59.396Z,19.6
2023-07-03T05:48:59.536Z,19.6
2023-07-03T05:49:59.690Z,19.76
2023-07-03T05:50:59.848Z,20
2023-07-03T05:51:59.990Z,20.24
2023-07-03T05:53:00.100Z,20.4
2023-07-03T05:54:00.321Z,21.2
2023-07-03T05:55:00.467Z,21.44
2023-07-03T05:56:00.588Z,21.2
2023-07-03T05:57:00.749Z,21.92
2023-07-03T05:58:00.893Z,21.84
2023-07-03T05:59:01.078Z,21.44
2023-07-03T06:00:01.198Z,22
2023-07-03T06:01:01.436Z,21.28
2023-07-03T06:02:01.504Z,20.64
2023-07-03T06:03:01.751Z,20.4
2023-07-03T06:04:01.879Z,20
2023-07-03T06:05:02.027Z,19.52
2023-07-03T06:06:02.164Z,19.76
2023-07-03T06:07:02.279Z,19.44
2023-07-03T06:08:02.422Z,19.6
2023-07-03T06:09:02.530Z,19.2
2023-07-03T06:10:02.721Z,19.52
2023-07-03T06:11:02.832Z,19.28
2023-07-03T06:12:02.992Z,19.52
2023-07-03T06:13:03.127Z,20
2023-07-03T06:14:03.310Z,19.28
2023-07-03T06:15:03.430Z,18.88
2023-07-03T06:16:03.584Z,19.44
2023-07-03T06:17:03.757Z,19.6
2023-07-03T06:18:03.905Z,20.24
2023-07-03T06:19:04.524Z,19.6
2023-07-03T06:21:04.342Z,19.12
2023-07-03T06:22:04.493Z,19.2
2023-07-03T06:23:05.232Z,19.44
2023-07-03T06:25:05.228Z,19.44
2023-07-03T06:26:05.452Z,19.52
2023-07-03T06:27:05.160Z,19.28
2023-07-03T06:28:05.302Z,19.44
2023-07-03T06:29:05.457Z,19.28
2023-07-03T06:30:05.631Z,18.88
2023-07-03T06:31:05.777Z,19.2
2023-07-03T06:32:05.928Z,19.28
2023-07-03T06:33:06.098Z,19.2
2023-07-03T06:34:06.220Z,18.88
2023-07-03T06:35:06.916Z,19.28
2023-07-03T06:36:06.529Z,19.28
2023-07-03T06:37:06.710Z,19.12
2023-07-03T06:38:06.821Z,19.2
2023-07-03T06:39:06.981Z,19.44
2023-07-03T06:40:07.133Z,19.28
2023-07-03T06:41:07.275Z,19.2
2023-07-03T06:42:07.439Z,19.44
2023-07-03T06:43:07.556Z,19.28
2023-07-03T06:44:07.688Z,19.04
2023-07-03T06:45:07.842Z,18.72
2023-07-03T06:46:08.025Z,19.2
2023-07-03T06:47:08.148Z,19.44
2023-07-03T06:48:08.313Z,19.28
2023-07-03T06:49:08.389Z,19.52
2023-07-03T06:50:08.546Z,19.6
2023-07-03T06:51:08.697Z,19.28
2023-07-03T06:52:08.857Z,19.6
2023-07-03T06:53:09.000Z,19.68
2023-07-03T06:54:09.163Z,20
2023-07-03T06:55:09.303Z,20.4
2023-07-03T06:56:09.457Z,20.32
2023-07-03T06:57:09.609Z,20.72
2023-07-03T06:58:09.762Z,20.72
2023-07-03T06:59:09.926Z,21.04
2023-07-03T07:00:10.084Z,20.88
2023-07-03T07:01:10.220Z,20.64
2023-07-03T07:02:10.441Z,20
2023-07-03T07:03:10.586Z,20.4
2023-07-03T07:04:10.893Z,20.8
2023-07-03T07:05:10.891Z,21.68
2023-07-03T07:06:11.084Z,21.28
2023-07-03T07:07:11.136Z,21.52
2023-07-03T07:08:11.315Z,21.28
2023-07-03T07:09:11.440Z,21.92
2023-07-03T07:10:11.598Z,21.44
2023-07-03T07:11:11.743Z,21.04
2023-07-03T07:12:11.891Z,21.2
2023-07-03T07:13:12.052Z,20.48
2023-07-03T07:14:12.195Z,19.92
2023-07-03T07:15:12.400Z,20.48
2023-07-03T07:16:12.505Z,20.48
2023-07-03T07:17:12.650Z,20
2023-07-03T07:18:12.804Z,21.28
2023-07-03T07:19:12.955Z,22.24
2023-07-03T07:20:13.109Z,22.64
2023-07-03T07:21:13.253Z,22.48
2023-07-03T07:22:13.368Z,22.64
2023-07-03T07:23:13.670Z,21.92
2023-07-03T07:24:13.675Z,22.4
2023-07-03T07:25:13.813Z,21.68
2023-07-03T07:26:13.976Z,21.28
2023-07-03T07:27:14.159Z,21.84
2023-07-03T07:28:14.242Z,22.8
2023-07-03T07:29:14.373Z,23.44
2023-07-03T07:30:14.483Z,22.8
2023-07-03T07:31:14.643Z,23.52
2023-07-03T07:32:14.783Z,22.64
2023-07-03T07:33:14.931Z,22.4
2023-07-03T07:34:15.140Z,23.6
2023-07-03T07:35:15.238Z,24
2023-07-03T07:36:15.394Z,23.6
2023-07-03T07:37:15.508Z,24
2023-07-03T07:38:15.645Z,23.92
2023-07-03T07:39:15.842Z,24.32
2023-07-03T07:40:15.953Z,23.44
2023-07-03T07:41:16.096Z,23.44
2023-07-03T07:42:16.251Z,24.64
2023-07-03T07:43:16.420Z,23.44
2023-07-03T07:44:16.557Z,22.72
2023-07-03T07:45:16.749Z,22.48
2023-07-03T07:46:16.921Z,23.2
2023-07-03T07:47:17.017Z,24
2023-07-03T07:48:17.625Z,22.8
2023-07-03T07:50:18.307Z,23.6
2023-07-03T07:52:17.929Z,23.12
2023-07-03T07:53:18.631Z,23.44
2023-07-03T07:54:18.005Z,23.84
2023-07-03T07:55:18.134Z,23.52
2023-07-03T07:56:18.285Z,23.04
2023-07-03T07:57:18.398Z,24
2023-07-03T07:58:18.491Z,22.64
2023-07-03T07:59:18.629Z,24.32
2023-07-03T08:00:18.729Z,24.64
2023-07-03T08:01:18.977Z,25.12
2023-07-03T08:02:19.080Z,24.32
2023-07-03T08:03:19.219Z,23.84
2023-07-03T08:04:19.434Z,23.2
2023-07-03T08:05:19.552Z,24.32
2023-07-03T08:06:19.636Z,25.04
2023-07-03T08:07:19.803Z,24.64
2023-07-03T08:08:19.958Z,23.52
2023-07-03T08:09:20.117Z,24.08
2023-07-03T08:10:20.261Z,24.72
2023-07-03T08:11:20.416Z,24.32
2023-07-03T08:12:20.554Z,25.04
2023-07-03T08:13:20.756Z,24.48
2023-07-03T08:14:20.934Z,25.04
2023-07-03T08:15:21.029Z,23.92
2023-07-03T08:16:21.166Z,23.44
2023-07-03T08:17:21.365Z,22.48
2023-07-03T08:18:21.487Z,22.32
2023-07-03T08:19:21.627Z,22
2023-07-03T08:20:21.768Z,21.6
2023-07-03T08:21:21.940Z,22.24
2023-07-03T08:22:22.067Z,22.24
2023-07-03T08:23:22.201Z,22.72
2023-07-03T08:24:22.324Z,23.04
2023-07-03T08:25:22.433Z,22.64
2023-07-03T08:26:22.607Z,22.24
2023-07-03T08:27:22.744Z,22.32
2023-07-03T08:28:22.907Z,22.8
2023-07-03T08:29:23.053Z,22.32
2023-07-03T08:30:23.221Z,22.24
2023-07-03T08:31:23.350Z,21.92
2023-07-03T08:32:23.497Z,22.08
2023-07-03T08:33:23.690Z,22
2023-07-03T08:34:23.817Z,21.84
2023-07-03T08:37:25.452Z,21.44
2023-07-03T08:38:24.402Z,21.68
2023-07-03T08:39:24.570Z,21.12
2023-07-03T08:40:24.759Z,21.44
2023-07-03T08:41:24.913Z,21.2
2023-07-03T08:42:25.060Z,21.12
2023-07-03T08:43:25.236Z,21.2
2023-07-03T08:44:25.380Z,20.8
2023-07-03T08:45:25.529Z,21.6
2023-07-03T08:46:25.776Z,21.6
2023-07-03T08:47:25.889Z,21.6
2023-07-03T08:48:25.996Z,21.6
2023-07-03T08:49:26.070Z,21.28
2023-07-03T08:50:36.286Z,21.2
2023-07-03T08:51:26.383Z,21.12
2023-07-03T08:52:26.527Z,21.68
2023-07-03T08:53:26.683Z,21.84
2023-07-03T08:54:26.786Z,21.28
2023-07-03T08:55:26.960Z,21.84
2023-07-03T08:56:27.083Z,22.08
2023-07-03T08:57:27.242Z,22.24
2023-07-03T08:58:27.383Z,21.84
2023-07-03T08:59:27.553Z,21.68
2023-07-03T09:00:27.696Z,21.68
2023-07-03T09:01:27.829Z,21.6
2023-07-03T09:02:28.209Z,21.68
2023-07-03T09:03:28.416Z,22.64
2023-07-03T09:04:28.436Z,23.2
2023-07-03T09:05:28.561Z,23.2
2023-07-03T09:06:28.715Z,23.2
2023-07-03T09:07:28.855Z,23.84
2023-07-03T09:08:29.015Z,23.44
2023-07-03T09:09:29.169Z,22.72
2023-07-03T09:10:29.311Z,23.44
2023-07-03T09:11:29.469Z,23.12
2023-07-03T09:12:29.625Z,22.24
2023-07-03T09:13:29.769Z,22
2023-07-03T09:14:29.926Z,21.84
2023-07-03T09:15:30.094Z,22.72
2023-07-03T09:16:30.353Z,23.28
2023-07-03T09:17:30.476Z,23.28
2023-07-03T09:18:30.634Z,23.68
2023-07-03T09:19:30.783Z,23.84
2023-07-03T09:20:30.946Z,25.04
2023-07-03T09:21:31.084Z,25.6
2023-07-03T09:22:31.197Z,25.2
2023-07-03T09:23:31.343Z,25.44
2023-07-03T09:24:31.488Z,24.72
2023-07-03T09:25:31.622Z,24.48
2023-07-03T09:26:31.743Z,24.24
2023-07-03T09:27:32.583Z,23.68
2023-07-03T09:28:32.054Z,22.8
2023-07-03T09:29:32.771Z,22.08
2023-07-03T09:30:32.397Z,23.04
2023-07-03T09:31:32.544Z,24.24
2023-07-03T09:32:32.752Z,24.64
2023-07-03T09:33:32.825Z,24.4
2023-07-03T09:34:32.974Z,25.52
2023-07-03T09:35:34.372Z,26.4
2023-07-03T09:36:33.269Z,25.2
2023-07-03T09:37:33.420Z,24.32
2023-07-03T09:38:33.568Z,25.2
2023-07-03T09:39:33.759Z,24.8
2023-07-03T09:40:33.945Z,23.52
2023-07-03T09:41:34.017Z,23.6
2023-07-03T09:42:34.178Z,23.68
2023-07-03T09:43:34.324Z,23.2
2023-07-03T09:44:34.477Z,23.12
2023-07-03T09:45:34.626Z,22.48
2023-07-03T09:46:34.782Z,22
2023-07-03T09:47:35.787Z,22.8
2023-07-03T09:48:35.090Z,22.8
2023-07-03T09:49:35.237Z,22.72
2023-07-03T09:50:35.391Z,22.8
2023-07-03T09:51:35.536Z,22.8
2023-07-03T09:52:35.697Z,22.8
2023-07-03T09:53:35.876Z,22.64
2023-07-03T09:54:35.996Z,22.08
2023-07-03T09:55:36.856Z,22.88
2023-07-03T09:57:36.504Z,23.04
2023-07-03T09:58:36.604Z,22.88
2023-07-03T09:59:36.761Z,24.48
2023-07-03T10:00:36.945Z,24.4
2023-07-03T10:03:38.187Z,26.48
2023-07-03T10:06:38.789Z,26.64
2023-07-03T10:07:38.115Z,25.44
2023-07-03T10:08:38.745Z,25.04
2023-07-03T10:11:39.781Z,22.8
2023-07-03T10:12:38.861Z,22.32
2023-07-03T10:13:39.949Z,22.24
2023-07-03T10:14:39.095Z,23.04
2023-07-03T10:15:39.240Z,22.88
2023-07-03T10:16:39.402Z,23.2
2023-07-03T10:17:39.722Z,23.28
2023-07-03T10:18:39.692Z,23.84
2023-07-03T10:19:39.852Z,23.44
2023-07-03T10:20:40.001Z,23.6
2023-07-03T10:21:40.153Z,24.32
2023-07-03T10:22:40.304Z,24.64
2023-07-03T10:23:40.452Z,26.08
2023-07-03T10:24:40.606Z,25.84
2023-07-03T10:25:40.766Z,27.84
2023-07-03T10:26:40.938Z,27.52
2023-07-03T10:27:41.066Z,27.2
2023-07-03T10:28:41.282Z,28.4
2023-07-03T10:29:41.363Z,28.24
2023-07-03T10:30:41.513Z,28.24
2023-07-03T10:31:42.844Z,27.2
2023-07-03T10:32:41.840Z,26.64
2023-07-03T10:33:41.990Z,25.28
2023-07-03T10:34:42.132Z,26.24
2023-07-03T10:35:42.278Z,25.28
2023-07-03T10:36:42.425Z,24.64
2023-07-03T10:37:42.578Z,24.24
2023-07-03T10:38:42.774Z,23.04
2023-07-03T10:39:42.907Z,23.2
2023-07-03T10:40:43.068Z,23.68
2023-07-03T10:41:43.183Z,23.12
2023-07-03T10:42:43.293Z,22.8
2023-07-03T10:43:43.438Z,22.8
2023-07-03T10:44:43.622Z,22.8
2023-07-03T10:45:43.711Z,22.8
2023-07-03T10:46:43.896Z,22.48
2023-07-03T10:47:44.036Z,23.28
2023-07-03T10:48:44.155Z,24.24
2023-07-03T10:49:44.326Z,23.84
2023-07-03T10:50:44.458Z,24.72
2023-07-03T10:51:44.608Z,25.2
2023-07-03T10:52:44.763Z,24.4
2023-07-03T10:53:44.912Z,23.92
2023-07-03T10:54:45.065Z,23.28
2023-07-03T10:55:45.215Z,22.8
2023-07-03T10:56:45.368Z,22.48
2023-07-03T10:57:45.520Z,22.64
2023-07-03T10:58:45.694Z,22.8
2023-07-03T10:59:45.846Z,23.12
2023-07-03T11:00:45.976Z,24.24
2023-07-03T11:01:46.225Z,24.24
2023-07-03T11:02:46.304Z,24.64
2023-07-03T11:03:47.890Z,25.2
2023-07-03T11:04:46.667Z,26.08
2023-07-03T11:05:46.740Z,25.6
2023-07-03T11:06:46.891Z,25.52
2023-07-03T11:07:47.042Z,25.28
2023-07-03T11:08:47.190Z,25.2
2023-07-03T11:09:47.354Z,24.24
2023-07-03T11:10:47.491Z,23.92
2023-07-03T11:11:47.662Z,23.92
2023-07-03T11:12:47.801Z,24
2023-07-03T11:13:48.007Z,23.28
2023-07-03T11:14:48.102Z,24.24
2023-07-03T11:15:48.302Z,24.72
2023-07-03T11:16:48.433Z,25.28
2023-07-03T11:23:49.549Z,24.72
2023-07-03T11:24:49.678Z,24.4
2023-07-03T11:29:50.433Z,26.48
2023-07-03T11:30:50.852Z,25.92
2023-07-03T11:31:50.773Z,26.32
2023-07-03T11:32:50.963Z,26.8
2023-07-03T11:35:51.936Z,25.92
2023-07-03T11:37:02.440Z,25.44
2023-07-03T11:39:52.977Z,24.24
2023-07-03T11:43:53.006Z,24
2023-07-03T11:44:52.709Z,25.2
2023-07-03T11:45:52.993Z,25.84
2023-07-03T11:46:53.077Z,25.04
2023-07-03T11:47:53.211Z,24.4
2023-07-03T11:48:53.345Z,24
2023-07-03T11:49:53.475Z,24
2023-07-03T11:50:53.621Z,23.84
2023-07-03T11:51:53.771Z,23.92
2023-07-03T11:52:53.929Z,22.8
2023-07-03T11:53:54.087Z,23.04
2023-07-03T11:54:54.237Z,23.04
2023-07-03T11:55:54.386Z,22.64
2023-07-03T11:56:54.563Z,23.2
2023-07-03T11:58:04.362Z,23.04
2023-07-03T11:58:55.293Z,23.44
2023-07-03T11:59:54.984Z,24.4
2023-07-03T12:00:55.171Z,25.6
2023-07-03T12:01:55.310Z,25.84
2023-07-03T12:02:55.448Z,26.64
2023-07-03T12:03:55.682Z,26.24
2023-07-03T12:04:55.743Z,26.88
2023-07-03T12:05:55.912Z,27.12
2023-07-03T12:06:56.051Z,26.24
2023-07-03T12:07:56.206Z,25.28
2023-07-03T12:08:56.366Z,24.8
2023-07-03T12:09:56.521Z,25.12
2023-07-03T12:10:57.213Z,24.72
2023-07-03T12:11:56.828Z,23.92
2023-07-03T12:12:56.976Z,23.68
2023-07-03T12:13:57.156Z,23.6
2023-07-03T12:14:57.303Z,22.88
2023-07-03T12:15:57.417Z,23.12
2023-07-03T12:16:57.618Z,23.04
2023-07-03T12:17:57.767Z,23.2
2023-07-03T12:18:57.837Z,23.12
2023-07-03T12:19:57.973Z,23.44
2023-07-03T12:20:58.127Z,24.72
2023-07-03T12:21:58.293Z,25.28
2023-07-03T12:22:58.500Z,24.88
2023-07-03T12:23:58.588Z,25.68
2023-07-03T12:24:58.754Z,25.12
2023-07-03T12:25:58.893Z,25.68
2023-07-03T12:26:59.042Z,25.92
2023-07-03T12:27:59.224Z,24.72
2023-07-03T12:28:59.400Z,24.64
2023-07-03T12:29:59.504Z,25.04
2023-07-03T12:30:59.719Z,24.72
2023-07-03T12:31:59.806Z,24.48
2023-07-03T12:32:59.975Z,24
2023-07-03T12:34:00.102Z,23.92
2023-07-03T12:35:00.253Z,23.28
2023-07-03T12:36:00.422Z,23.6
2023-07-03T12:37:02.229Z,24.8
2023-07-03T12:38:00.663Z,24.24
2023-07-03T12:39:00.809Z,24.24
2023-07-03T12:40:00.960Z,23.52
2023-07-03T12:41:01.116Z,23.28
2023-07-03T12:42:01.269Z,22.88
2023-07-03T12:43:01.431Z,23.6
2023-07-03T12:44:07.870Z,24.24
2023-07-03T12:45:01.721Z,24.88
2023-07-03T12:46:01.868Z,24.32
2023-07-03T12:47:02.102Z,25.84
2023-07-03T12:48:02.253Z,26
2023-07-03T12:49:02.329Z,26.88
2023-07-03T12:50:02.486Z,26.24
2023-07-03T12:51:02.625Z,26.72
2023-07-03T12:52:02.796Z,26.4
2023-07-03T12:53:02.941Z,27.68
2023-07-03T12:54:03.147Z,27.92
2023-07-03T12:56:04.141Z,27.84
2023-07-03T12:58:03.699Z,27.04
2023-07-03T12:59:03.855Z,27.2
2023-07-03T13:00:04.008Z,26.32
2023-07-03T13:01:04.164Z,25.68
2023-07-03T13:02:04.308Z,25.44
2023-07-03T13:03:04.491Z,25.52
2023-07-03T13:04:04.614Z,25.92
2023-07-03T13:05:04.854Z,26.64
2023-07-03T13:06:04.976Z,26.24
2023-07-03T13:07:05.058Z,26.48
2023-07-03T13:08:05.161Z,27.04
2023-07-03T13:09:05.318Z,26.32
2023-07-03T13:10:05.529Z,25.92
2023-07-03T13:11:05.616Z,25.2
2023-07-03T13:12:05.768Z,25.44
2023-07-03T13:13:05.937Z,24.88
2023-07-03T13:14:06.079Z,25.44
2023-07-03T13:15:06.242Z,25.12
2023-07-03T13:16:06.378Z,24.64
2023-07-03T13:17:06.677Z,24.24
2023-07-03T13:18:06.686Z,24.64
2023-07-03T13:19:06.835Z,24.4
2023-07-03T13:20:07.032Z,24.32
2023-07-03T13:21:07.140Z,24.72
2023-07-03T13:22:07.296Z,24
2023-07-03T13:23:07.452Z,23.68
2023-07-03T13:24:07.598Z,23.52
2023-07-03T13:25:07.769Z,24
2023-07-03T13:26:07.895Z,24.48
2023-07-03T13:27:08.045Z,25.84
2023-07-03T13:28:08.214Z,26
2023-07-03T13:29:08.369Z,26.4
2023-07-03T13:30:09.366Z,26.08
2023-07-03T13:31:08.696Z,25.84
2023-07-03T13:32:08.813Z,26.32
2023-07-03T13:33:08.969Z,25.28
2023-07-03T13:34:09.072Z,24.72